Du Bois, Pennsylvania
Current Conditions -  °F | °C
As of 8:18 PM on Monday 22 Dec 2014 (Local Time) from KDUJ Reporting Station
Haze Haze  
Wind Chill: -6°   Ceiling: 900
Heat Index: -1°   Visibility: 4mi
Dew Point: -2°   Wind: 12mph
Humidity: 92%   Direction: 110°ESE
Pressure: 30.01"   Gusts: NA
Location:  41.12°N, 78.76°W
Report Text: KDUJ 230118Z AUTO 11010KT 4SM BR OVC009 M01/M02 A3001 RMK AO2 CIG 005V012 T10111022
Loading
Personal Weather Stations






























Interactive Weather Map New forecast layout! Learn more

10-Day Weather Forecast

Advertisements
Track Severe Weather on mobile